Flight Track Log - Related Links

Times and Time Zones

All times are in EDT time to prevent confusion due to time zone crossing. See the QLK115 flight status page for this flight to view local times or setup timezone preferences in your user account.

Time Position Orientation Groundspeed Altitude Reporting Facility
EDT Latitude Longitude Course Direction KTS MPH feet Rate Location/Type
Fri 05:31:25 AM -30.4069 153.0410 185° South 18,000  Level Aus ATC (Calculated)
Fri 05:32:07 AM -30.4220 153.0394 215° Southwest 173 199 4,800 -7,299 Descending Aus ATC (RADAR)
Fri 05:33:02 AM -30.4588 153.0094 215° Southwest 180 207 6,200 1,694 Climbing Aus ATC (RADAR)
Fri 05:33:32 AM -30.4835 152.9969 204° Southwest 191 220 7,200 2,000 Climbing Aus ATC (RADAR)
Fri 05:34:02 AM -30.5136 153.0002 175° South 211 243 8,200 1,946 Climbing Aus ATC (RADAR)
Fri 05:34:46 AM -30.5555 153.0034 176° South 203 234 9,600 1,747 Climbing Aus ATC (RADAR)
Fri 05:35:21 AM -30.5888 153.0040 179° South 205 236 10,500 1,624 Climbing Aus ATC (RADAR)
Fri 05:36:11 AM -30.6357 152.9981 186° South 203 234 11,900 1,360 Climbing Aus ATC (RADAR)
Fri 05:36:36 AM -30.6591 152.9966 183° South 203 234 12,200 1,100 Climbing Aus ATC (RADAR)
Fri 05:37:11 AM -30.6930 152.9955 182° South 208 239 13,000 1,200 Climbing Aus ATC (RADAR)
Fri 05:38:06 AM -30.7462 152.9927 183° South 211 243 14,000 1,200 Climbing Aus ATC (RADAR)
Fri 05:38:36 AM -30.7755 152.9900 185° South 211 243 14,700 1,200 Climbing Aus ATC (RADAR)
Fri 05:39:11 AM -30.8096 152.9881 183° South 211 243 15,300 1,125 Climbing Aus ATC (RADAR)
Fri 05:39:56 AM -30.8469 152.9691 204° Southwest 198 228 16,200 1,200 Climbing Aus ATC (RADAR)
Fri 05:40:31 AM -30.8695 152.9439 224° Southwest 194 223 16,900 1,125 Climbing Aus ATC (RADAR)
Fri 05:41:16 AM -30.9009 152.9136 220° Southwest 196 226 17,700 1,015 Climbing Aus ATC (RADAR)
Fri 05:41:36 AM -30.9150 152.8999 220° Southwest 197 227 18,000 1,091 Climbing Aus ATC (RADAR)
Fri 05:42:11 AM -30.9393 152.8757 221° Southwest 198 228 18,700 758 Climbing Aus ATC (RADAR)
Fri 05:43:11 AM -30.9822 152.8337 220° Southwest 206 237 19,200 357 Climbing Aus ATC (RADAR)
Fri 05:43:35 AM -31.0021 152.8142 220° Southwest 221 254 19,200  Level Aus ATC (RADAR)
Fri 05:44:10 AM -31.0313 152.7857 220° Southwest 234 269 19,200  Level Aus ATC (RADAR)
Fri 05:44:55 AM -31.0712 152.7467 220° Southwest 250 288 19,200  Level Aus ATC (RADAR)
Fri 05:45:30 AM -31.1029 152.7157 220° Southwest 256 295 19,200  Level Aus ATC (RADAR)
Fri 05:46:15 AM -31.1440 152.6755 220° Southwest 259 298 19,200  Level Aus ATC (RADAR)
Fri 05:46:40 AM -31.1673 152.6535 219° Southwest 258 297 19,200  Level Aus ATC (RADAR)
Fri 05:47:15 AM -31.1999 152.6214 220° Southwest 263 303 19,200  Level Aus ATC (RADAR)
Fri 05:48:05 AM -31.2461 152.5757 220° Southwest 263 303 19,200  Level Aus ATC (RADAR)
Fri 05:48:30 AM -31.2694 152.5528 220° Southwest 264 304 19,200  Level Aus ATC (RADAR)
Fri 05:49:10 AM -31.3063 152.5160 220° Southwest 263 303 19,200  Level Aus ATC (RADAR)
Fri 05:49:55 AM -31.3483 152.4743 220° Southwest 264 304 19,200  Level Aus ATC (RADAR)
Fri 05:50:30 AM -31.3807 152.4425 220° Southwest 263 303 19,200  Level Aus ATC (RADAR)
Fri 05:51:05 AM -31.4131 152.4095 221° Southwest 264 304 19,200  Level Aus ATC (RADAR)
Fri 05:51:35 AM -31.4409 152.3824 220° Southwest 261 300 19,200  Level Aus ATC (RADAR)
Fri 05:52:09 AM -31.4735 152.3498 220° Southwest 264 304 19,200  Level Aus ATC (RADAR)
Fri 05:52:59 AM -31.5205 152.3028 220° Southwest 270 311 19,200  Level Aus ATC (RADAR)
Fri 05:53:34 AM -31.5530 152.2711 220° Southwest 264 304 19,200  Level Aus ATC (RADAR)
Fri 05:54:09 AM -31.5855 152.2385 220° Southwest 264 304 19,200  Level Aus ATC (RADAR)
Fri 05:54:54 AM -31.6274 152.1963 221° Southwest 266 306 19,200  Level Aus ATC (RADAR)
Fri 05:55:19 AM -31.6510 152.1731 220° Southwest 268 308 19,200  Level Aus ATC (RADAR)
Fri 05:55:54 AM -31.6834 152.1403 221° Southwest 266 306 19,200  Level Aus ATC (RADAR)
Fri 05:56:39 AM -31.7255 152.0982 220° Southwest 267 307 19,200  Level Aus ATC (RADAR)
Fri 05:57:14 AM -31.7580 152.0658 220° Southwest 263 303 19,200  Level Aus ATC (RADAR)
Fri 05:57:59 AM -31.7999 152.0240 220° Southwest 263 303 19,200  Level Aus ATC (RADAR)
Fri 05:58:34 AM -31.8322 151.9911 221° Southwest 264 304 19,200  Level Aus ATC (RADAR)
Fri 05:59:09 AM -31.8649 151.9583 220° Southwest 266 306 19,200  Level Aus ATC (RADAR)
Fri 05:59:44 AM -31.8971 151.9254 221° Southwest 263 303 19,200 -80 Level Aus ATC (RADAR)
Fri 06:00:24 AM -31.9346 151.8885 220° Southwest 264 304 19,100 -80 Descending Aus ATC (RADAR)
Fri 06:00:59 AM -31.9666 151.8559 221° Southwest 259 298 19,100  Level Aus ATC (RADAR)
Fri 06:01:44 AM -32.0084 151.8138 220° Southwest 260 299 19,100  Level Aus ATC (RADAR)
Fri 06:02:09 AM -32.0315 151.7897 221° Southwest 260 299 19,100  Level Aus ATC (RADAR)
Fri 06:02:44 AM -32.0642 151.7576 220° Southwest 258 297 19,100  Level Aus ATC (RADAR)
Fri 06:03:24 AM -32.1012 151.7198 221° Southwest 260 299 19,100  Level Aus ATC (RADAR)
Fri 06:03:53 AM -32.1291 151.6906 221° Southwest 265 305 19,100  Level Aus ATC (RADAR)
Fri 06:04:28 AM -32.1618 151.6581 220° Southwest 265 305 19,100  Level Aus ATC (RADAR)
Fri 06:05:09 AM -32.1980 151.6208 221° Southwest 258 297 19,100  Level Aus ATC (RADAR)
Fri 06:05:43 AM -32.2299 151.5876 221° Southwest 258 297 19,100  Level Aus ATC (RADAR)
Fri 06:06:18 AM -32.2621 151.5549 221° Southwest 258 297 19,100  Level Aus ATC (RADAR)
Fri 06:06:53 AM -32.2941 151.5218 221° Southwest 259 298 19,100  Level Aus ATC (RADAR)
Fri 06:07:28 AM -32.3265 151.4894 220° Southwest 258 297 19,100  Level Aus ATC (RADAR)
Fri 06:08:18 AM -32.3725 151.4427 221° Southwest 257 296 19,100  Level Aus ATC (RADAR)
Fri 06:08:38 AM -32.3910 151.4243 220° Southwest 258 297 19,100  Level Aus ATC (RADAR)
Fri 06:09:04 AM -32.4142 151.3994 222° Southwest 265 305 19,100  Level Aus ATC (RADAR)
Fri 06:09:43 AM -32.4506 151.3627 220° Southwest 257 296 19,100  Level Aus ATC (RADAR)
Fri 06:10:28 AM -32.4918 151.3206 221° Southwest 257 296 19,100  Level Aus ATC (RADAR)
Fri 06:11:03 AM -32.5240 151.2877 221° Southwest 257 296 19,100  Level Aus ATC (RADAR)
Fri 06:11:43 AM -32.5651 151.2561 213° Southwest 264 304 19,100  Level Aus ATC (RADAR)
Fri 06:12:08 AM -32.5982 151.2533 184° South 270 311 19,100  Level Aus ATC (RADAR)
Fri 06:12:47 AM -32.6526 151.2527 181° South 282 325 19,100  Level Aus ATC (RADAR)
Fri 06:13:42 AM -32.7254 151.2483 183° South 283 326 19,100  Level Aus ATC (RADAR)
Fri 06:14:07 AM -32.7581 151.2460 183° South 281 323 19,100  Level Aus ATC (RADAR)
Fri 06:14:42 AM -32.8044 151.2437 182° South 282 325 19,100  Level Aus ATC (RADAR)
Fri 06:15:22 AM -32.8572 151.2415 182° South 287 330 19,100  Level Aus ATC (RADAR)
Fri 06:15:57 AM -32.9038 151.2387 183° South 288 331 19,100  Level Aus ATC (RADAR)
Fri 06:16:32 AM -32.9503 151.2361 183° South 287 330 19,100 -600 Level Aus ATC (RADAR)
Fri 06:17:07 AM -32.9963 151.2332 183° South 279 321 18,400 -1,292 Descending Aus ATC (RADAR)
Fri 06:17:37 AM -33.0351 151.2317 182° South 283 326 17,700 -1,520 Descending Aus ATC (RADAR)
Fri 06:18:22 AM -33.0942 151.2278 183° South 284 327 16,500 -1,575 Descending Aus ATC (RADAR)
Fri 06:18:57 AM -33.1398 151.2252 183° South 282 325 15,600 -1,520 Descending Aus ATC (RADAR)
Fri 06:19:37 AM -33.1924 151.2234 182° South 284 327 14,600 -1,482 Descending Aus ATC (RADAR)
Fri 06:20:22 AM -33.2517 151.2199 183° South 285 328 13,500 -1,457 Descending Aus ATC (RADAR)
Fri 06:20:47 AM -33.2844 151.2180 183° South 284 327 12,900 -1,500 Descending Aus ATC (RADAR)
Fri 06:21:22 AM -33.3292 151.2150 183° South 280 322 12,000 -1,575 Descending Aus ATC (RADAR)
Fri 06:22:07 AM -33.3882 151.2124 182° South 284 327 10,800 -1,500 Descending Aus ATC (RADAR)
Fri 06:22:42 AM -33.4333 151.2100 183° South 279 321 10,000 -1,459 Descending Aus ATC (RADAR)
Fri 06:23:21 AM -33.4840 151.2073 183° South 275 316 9,000 -1,541 Descending Aus ATC (RADAR)
Fri 06:23:56 AM -33.5282 151.2047 183° South 272 313 8,100 -1,543 Descending Aus ATC (RADAR)
Fri 06:24:31 AM -33.5717 151.2024 183° South 270 311 7,200 -1,457 Descending Aus ATC (RADAR)
Fri 06:25:06 AM -33.6145 151.2000 183° South 264 304 6,400 -1,108 Descending Aus ATC (RADAR)
Fri 06:25:36 AM -33.6507 151.1978 183° South 262 302 6,000 -369 Descending Aus ATC (RADAR)
Fri 06:26:11 AM -33.6921 151.1914 187° South 257 296 6,000  Level Aus ATC (RADAR)
Fri 06:26:46 AM -33.7331 151.1832 189° South 256 295 6,000  Level Aus ATC (RADAR)
Fri 06:27:16 AM -33.7670 151.1739 193° South 250 288 6,000  Level Aus ATC (RADAR)
Fri 06:27:51 AM -33.8047 151.1565 201° Southwest 247 284 6,000  Level Aus ATC (RADAR)
Fri 06:28:46 AM -33.8627 151.1337 198° South 238 274 6,000  Level Aus ATC (RADAR)
Fri 06:29:11 AM -33.8889 151.1241 197° South 236 272 6,000  Level Aus ATC (RADAR)
Fri 06:29:46 AM -33.9258 151.1098 198° South 239 275 6,000  Level Aus ATC (RADAR)
Fri 06:30:30 AM -33.9733 151.0913 198° South 237 273 6,000  Level Aus ATC (RADAR)
Fri 06:31:00 AM -34.0051 151.0793 197° South 238 274 6,000  Level Aus ATC (RADAR)
Fri 06:31:35 AM -34.0433 151.0711 190° South 247 284 6,000  Level Aus ATC (RADAR)
Fri 06:32:15 AM -34.0873 151.0877 163° South 248 285 6,000 -400 Level Aus ATC (RADAR)
Fri 06:32:50 AM -34.1261 151.0988 167° South 244 281 5,500 -918 Descending Aus ATC (RADAR)
Fri 06:33:40 AM -34.1812 151.1142 167° South 244 281 4,700 -800 Descending Aus ATC (RADAR)
Fri 06:34:35 AM -34.2393 151.1313 166° South 228 262 4,100 -675 Descending Aus ATC (RADAR)
Fri 06:35:00 AM -34.2470 151.1574 110° East 197 227 3,800 -500 Descending Aus ATC (RADAR)
Fri 06:35:35 AM -34.2455 151.1905 87° East 166 191 3,600 -450 Descending Aus ATC (RADAR)
Fri 06:36:20 AM -34.2139 151.2058 22° Northeast 168 193 3,200 -450 Descending Aus ATC (RADAR)
Fri 06:36:55 AM -34.1873 151.2127 12° North 166 191 3,000 -150 Descending Aus ATC (RADAR)
Fri 06:37:40 AM -34.1533 151.2207 11° North 165 190 3,000  Level Aus ATC (RADAR)
Fri 06:38:00 AM -34.1380 151.2238 North 166 191 3,000 -188 Level Aus ATC (RADAR)
Fri 06:38:44 AM -34.1023 151.2160 350° North 175 201 2,800 -571 Descending Aus ATC (RADAR)
Fri 06:39:24 AM -34.0737 151.2090 348° North 153 176 2,200 -880 Descending Aus ATC (RADAR)
Fri 06:39:59 AM -34.0493 151.2027 348° North 153 176 1,700 -750 Descending Aus ATC (RADAR)
Fri 06:40:44 AM -34.0214 151.1954 348° North 132 152 1,200 -686 Descending Aus ATC (RADAR)
Fri 06:41:09 AM -34.0084 151.1922 348° North 115 132 900 -600 Descending Aus ATC (RADAR)
Fri 06:41:44 AM -33.9905 151.1874 348° North 112 129 600 -525 Descending Aus ATC (RADAR)
Fri 06:42:29 AM -33.9695 151.1820 348° North 103 119 200 -240 Descending Aus ATC (RADAR)
Fri 06:43:49 AM -33.9435 151.1771 351° North 44 51 100 -75 Descending Aus ATC (RADAR)

Login

Don't have an account? Register now (free) for customized features, flight alerts, and more!